createdAt,value
2019-04-21T00:02:28.064Z,14.12
2019-04-21T00:05:10.879Z,14.09
2019-04-21T00:07:45.363Z,14.11
2019-04-21T00:10:18.827Z,14.08
2019-04-21T00:12:51.788Z,14.07
2019-04-21T00:15:18.029Z,14.07
2019-04-21T00:17:43.578Z,13.92
2019-04-21T00:20:23.787Z,13.99
2019-04-21T00:23:02.817Z,13.94
2019-04-21T00:25:33.720Z,13.89
2019-04-21T00:28:16.819Z,13.94
2019-04-21T00:30:50.792Z,13.80
2019-04-21T00:33:10.292Z,13.73
2019-04-21T00:35:43.358Z,13.80
2019-04-21T00:38:24.975Z,13.83
2019-04-21T00:41:00.368Z,13.84
2019-04-21T00:43:29.393Z,13.81
2019-04-21T00:45:57.572Z,13.80
2019-04-21T00:48:41.348Z,13.81
2019-04-21T00:51:25.018Z,13.89
2019-04-21T00:53:58.120Z,13.80
2019-04-21T00:56:27.882Z,13.72
2019-04-21T00:58:59.267Z,13.51
2019-04-21T01:01:31.216Z,13.51
2019-04-21T01:04:04.851Z,13.39
2019-04-21T01:06:42.495Z,13.46
2019-04-21T01:09:07.700Z,13.39
2019-04-21T01:11:47.808Z,13.44
2019-04-21T01:14:23.621Z,13.41
2019-04-21T01:16:55.965Z,13.45
2019-04-21T01:19:20.939Z,13.33
2019-04-21T01:21:34.988Z,13.27
2019-04-21T01:24:13.344Z,13.14
2019-04-21T01:26:53.648Z,13.15
2019-04-21T01:29:37.516Z,13.14
2019-04-21T01:32:13.443Z,12.97
2019-04-21T01:34:39.357Z,12.92
2019-04-21T01:37:04.118Z,12.79
2019-04-21T01:39:46.941Z,12.76
2019-04-21T01:42:18.821Z,12.69
2019-04-21T01:44:52.301Z,12.82
2019-04-21T01:47:17.368Z,12.51
2019-04-21T01:49:47.535Z,12.64
2019-04-21T01:52:38.383Z,12.69
2019-04-21T01:55:25.050Z,12.65
2019-04-21T01:58:01.944Z,12.60
2019-04-21T02:00:51.806Z,12.65
2019-04-21T02:03:48.690Z,12.54
2019-04-21T02:06:12.055Z,12.44
2019-04-21T02:08:31.344Z,12.19
2019-04-21T02:11:11.250Z,12.28
2019-04-21T02:13:50.226Z,12.29
2019-04-21T02:16:19.039Z,12.32
2019-04-21T02:18:47.803Z,12.36
2019-04-21T02:21:17.881Z,12.34
2019-04-21T02:24:01.828Z,12.30
2019-04-21T02:26:27.418Z,12.23
2019-04-21T02:29:10.688Z,12.26
2019-04-21T02:32:07.867Z,12.27
2019-04-21T02:41:54.552Z,12.15
2019-04-21T02:49:46.891Z,12.08
2019-04-21T02:52:11.491Z,12.04
2019-04-21T02:59:59.605Z,11.69
2019-04-21T03:05:31.033Z,11.59
2019-04-21T03:07:55.485Z,11.69
2019-04-21T03:13:05.997Z,11.68
2019-04-21T03:20:49.134Z,11.61
2019-04-21T03:38:37.686Z,11.41
2019-04-21T03:41:04.211Z,11.36
2019-04-21T03:43:36.175Z,11.32
2019-04-21T03:46:08.592Z,11.43
2019-04-21T03:48:40.643Z,11.35
2019-04-21T03:53:48.093Z,11.20
2019-04-21T03:56:27.792Z,11.08
2019-04-21T03:58:58.506Z,11.15
2019-04-21T04:01:40.386Z,11.20
2019-04-21T04:10:03.700Z,11.06
2019-04-21T04:15:00.988Z,10.94
2019-04-21T04:17:36.034Z,10.92
2019-04-21T04:20:13.209Z,10.87
2019-04-21T04:32:46.659Z,10.80
2019-04-21T04:35:38.388Z,10.68
2019-04-21T04:38:00.893Z,10.65
2019-04-21T04:40:38.357Z,10.66
2019-04-21T04:43:20.622Z,10.69
2019-04-21T04:45:48.429Z,10.71
2019-04-21T04:48:24.121Z,10.79
2019-04-21T04:50:53.145Z,10.64
2019-04-21T04:53:42.753Z,10.59
2019-04-21T04:56:08.223Z,10.74
2019-04-21T04:59:10.715Z,10.84
2019-04-21T05:03:49.464Z,10.61
2019-04-21T05:21:43.981Z,10.55
2019-04-21T05:24:12.400Z,10.68
2019-04-21T05:26:43.291Z,10.65
2019-04-21T05:29:11.009Z,10.79
2019-04-21T05:32:04.590Z,10.77
2019-04-21T05:34:31.886Z,10.72
2019-04-21T05:37:15.505Z,10.82
2019-04-21T05:39:49.244Z,10.84
2019-04-21T05:42:15.349Z,10.98
2019-04-21T05:47:46.387Z,11.20
2019-04-21T05:50:15.034Z,11.12
2019-04-21T05:52:55.929Z,11.23
2019-04-21T05:58:02.669Z,11.40
2019-04-21T06:01:06.079Z,11.50
2019-04-21T06:03:16.483Z,11.60
2019-04-21T06:05:53.315Z,11.68
2019-04-21T06:08:21.649Z,11.69
2019-04-21T06:13:29.567Z,12.02
2019-04-21T06:16:03.883Z,12.17
2019-04-21T06:18:36.016Z,12.23
2019-04-21T06:21:05.561Z,12.31
2019-04-21T06:23:36.732Z,12.44
2019-04-21T06:33:48.923Z,12.98
2019-04-21T06:36:53.175Z,13.11
2019-04-21T06:39:12.164Z,13.20
2019-04-21T06:44:11.850Z,13.36
2019-04-21T06:46:41.425Z,13.52
2019-04-21T06:49:15.963Z,13.65
2019-04-21T06:51:49.787Z,13.76
2019-04-21T06:54:21.030Z,13.81
2019-04-21T06:57:08.735Z,13.97
2019-04-21T06:59:28.077Z,14.13
2019-04-21T07:04:47.003Z,14.37
2019-04-21T07:07:15.922Z,14.48
2019-04-21T07:10:01.453Z,14.57
2019-04-21T07:12:13.761Z,14.68
2019-04-21T07:14:52.679Z,14.91
2019-04-21T07:20:03.802Z,15.04
2019-04-21T07:22:33.728Z,15.18
2019-04-21T07:25:02.742Z,15.28
2019-04-21T07:27:44.958Z,15.40
2019-04-21T07:32:45.982Z,15.64
2019-04-21T07:35:17.535Z,15.76
2019-04-21T07:37:51.253Z,15.90
2019-04-21T07:40:17.726Z,16.05
2019-04-21T07:42:47.746Z,16.10
2019-04-21T07:45:17.999Z,16.33
2019-04-21T07:48:01.644Z,16.36
2019-04-21T07:50:46.355Z,16.45
2019-04-21T07:53:30.291Z,16.54
2019-04-21T07:55:35.786Z,16.63
2019-04-21T07:58:31.074Z,16.65
2019-04-21T08:03:34.836Z,16.77
2019-04-21T08:06:02.131Z,16.81
2019-04-21T08:08:34.572Z,16.93
2019-04-21T08:11:13.373Z,17.09
2019-04-21T08:13:57.367Z,17.23
2019-04-21T08:16:21.157Z,17.26
2019-04-21T08:18:52.360Z,17.34
2019-04-21T08:21:20.783Z,17.53
2019-04-21T08:23:54.187Z,17.67
2019-04-21T08:26:33.781Z,17.80
2019-04-21T08:29:07.891Z,17.81
2019-04-21T08:31:39.235Z,17.88
2019-04-21T08:34:09.661Z,18.09
2019-04-21T08:36:40.279Z,18.16
2019-04-21T08:39:12.752Z,18.29
2019-04-21T08:41:48.459Z,18.34
2019-04-21T08:44:24.320Z,18.49
2019-04-21T08:46:56.325Z,18.67
2019-04-21T08:49:22.316Z,18.68
2019-04-21T08:52:00.711Z,18.73
2019-04-21T08:54:35.095Z,18.81
2019-04-21T08:57:21.545Z,18.83
2019-04-21T09:00:08.348Z,18.96
2019-04-21T09:02:40.270Z,19.00
2019-04-21T09:05:11.116Z,19.12
2019-04-21T09:07:44.920Z,19.14
2019-04-21T09:10:17.589Z,19.24
2019-04-21T09:12:53.514Z,19.46
2019-04-21T09:15:24.935Z,19.53
2019-04-21T09:17:49.201Z,19.65
2019-04-21T09:20:33.602Z,19.81
2019-04-21T09:23:00.788Z,19.84
2019-04-21T09:25:44.823Z,19.93
2019-04-21T09:28:04.050Z,20.05
2019-04-21T09:30:24.121Z,20.11
2019-04-21T09:32:58.145Z,20.18
2019-04-21T09:35:29.161Z,20.40
2019-04-21T09:38:11.280Z,20.44
2019-04-21T09:40:37.371Z,20.49
2019-04-21T09:43:09.545Z,20.35
2019-04-21T09:45:38.892Z,20.39
2019-04-21T09:48:15.583Z,20.52
2019-04-21T09:50:43.375Z,20.59
2019-04-21T09:53:26.356Z,20.64
2019-04-21T09:55:54.263Z,20.81
2019-04-21T09:58:29.304Z,20.98
2019-04-21T10:01:05.170Z,20.98
2019-04-21T10:03:39.606Z,21.11
2019-04-21T10:06:00.702Z,21.07
2019-04-21T10:08:31.942Z,21.42
2019-04-21T10:11:03.360Z,21.53
2019-04-21T10:13:36.243Z,21.80
2019-04-21T10:16:21.894Z,22.12
2019-04-21T10:18:54.623Z,22.25
2019-04-21T10:21:27.658Z,22.39
2019-04-21T10:23:59.839Z,22.43
2019-04-21T10:26:31.058Z,22.44
2019-04-21T10:29:08.168Z,22.41
2019-04-21T10:31:36.660Z,22.42
2019-04-21T10:34:09.353Z,22.60
2019-04-21T10:36:40.779Z,22.63
2019-04-21T10:39:13.571Z,22.59
2019-04-21T10:41:45.819Z,22.76
2019-04-21T10:44:17.154Z,22.89
2019-04-21T10:46:51.827Z,22.84
2019-04-21T10:49:23.003Z,22.70
2019-04-21T10:51:55.012Z,22.74
2019-04-21T10:54:38.805Z,22.65
2019-04-21T10:57:02.105Z,22.75
2019-04-21T10:59:33.616Z,22.81
2019-04-21T11:02:07.259Z,22.88
2019-04-21T11:04:40.218Z,23.03
2019-04-21T11:07:33.439Z,23.15
2019-04-21T11:10:02.489Z,23.30
2019-04-21T11:12:36.483Z,23.71
2019-04-21T11:15:09.430Z,23.75
2019-04-21T11:17:43.487Z,23.92
2019-04-21T11:20:14.967Z,23.86
2019-04-21T11:22:47.307Z,24.02
2019-04-21T11:25:19.786Z,24.05
2019-04-21T11:27:51.461Z,24.22
2019-04-21T11:30:23.396Z,24.22
2019-04-21T11:32:55.279Z,24.31
2019-04-21T11:35:27.629Z,24.43
2019-04-21T11:38:10.697Z,24.46
2019-04-21T11:40:36.034Z,24.26
2019-04-21T11:43:07.210Z,24.35
2019-04-21T11:45:40.100Z,24.48
2019-04-21T11:48:39.999Z,24.53
2019-04-21T11:51:11.131Z,24.51
2019-04-21T11:53:43.120Z,24.34
2019-04-21T11:56:14.945Z,24.34
2019-04-21T11:58:47.798Z,24.35
2019-04-21T12:01:19.264Z,24.53
2019-04-21T12:03:51.726Z,24.66
2019-04-21T12:06:31.722Z,24.78
2019-04-21T12:08:59.087Z,24.73
2019-04-21T12:11:29.415Z,24.84
2019-04-21T12:14:00.723Z,24.83
2019-04-21T12:16:33.118Z,24.85
2019-04-21T12:19:05.133Z,24.72
2019-04-21T12:21:49.212Z,24.66
2019-04-21T12:24:09.209Z,24.45
2019-04-21T12:26:40.345Z,24.38
2019-04-21T12:29:11.686Z,24.31
2019-04-21T12:32:01.685Z,24.31
2019-04-21T12:34:34.309Z,24.29
2019-04-21T12:37:06.777Z,24.40
2019-04-21T12:39:38.733Z,24.52
2019-04-21T12:42:09.918Z,24.60
2019-04-21T12:44:41.337Z,24.64
2019-04-21T12:47:12.527Z,24.67
2019-04-21T12:49:43.786Z,24.59
2019-04-21T12:52:15.627Z,24.54
2019-04-21T12:54:48.048Z,24.52
2019-04-21T12:57:19.240Z,24.53
2019-04-21T12:59:50.930Z,24.62
2019-04-21T13:02:23.394Z,24.49
2019-04-21T13:04:55.866Z,24.38
2019-04-21T13:07:27.706Z,24.31
2019-04-21T13:10:00.107Z,24.26
2019-04-21T13:12:31.424Z,24.28
2019-04-21T13:15:04.238Z,24.39
2019-04-21T13:17:35.577Z,24.40
2019-04-21T13:20:07.882Z,24.24
2019-04-21T13:22:39.768Z,24.27
2019-04-21T13:25:11.899Z,24.24
2019-04-21T13:27:45.055Z,24.35
2019-04-21T13:30:18.229Z,24.48
2019-04-21T13:32:49.339Z,24.45
2019-04-21T13:35:21.206Z,24.53
2019-04-21T13:37:52.488Z,24.49
2019-04-21T13:40:56.840Z,24.55
2019-04-21T13:43:25.253Z,24.58
2019-04-21T13:45:57.525Z,24.49
2019-04-21T13:48:28.713Z,24.32
2019-04-21T13:50:59.657Z,24.32
2019-04-21T13:53:32.588Z,24.28
2019-04-21T13:56:04.729Z,24.27
2019-04-21T13:58:35.792Z,24.32
2019-04-21T14:01:07.698Z,24.33
2019-04-21T14:03:39.653Z,24.41
2019-04-21T14:06:12.055Z,24.48
2019-04-21T14:08:54.712Z,24.30
2019-04-21T14:11:27.198Z,24.10
2019-04-21T14:13:58.611Z,24.06
2019-04-21T14:16:29.885Z,24.04
2019-04-21T14:19:01.485Z,24.13
2019-04-21T14:21:33.757Z,24.29
2019-04-21T14:24:06.672Z,24.16
2019-04-21T14:26:38.540Z,24.12
2019-04-21T14:29:11.320Z,23.97
2019-04-21T14:31:44.243Z,23.96
2019-04-21T14:34:16.455Z,24.01
2019-04-21T14:36:50.757Z,24.10
2019-04-21T14:39:50.428Z,24.18
2019-04-21T14:42:14.115Z,24.10
2019-04-21T14:44:46.864Z,24.11
2019-04-21T14:47:37.995Z,24.13
2019-04-21T14:50:28.375Z,24.11
2019-04-21T14:53:12.258Z,23.95
2019-04-21T14:55:45.770Z,23.82
2019-04-21T14:58:17.273Z,23.80
2019-04-21T15:00:57.784Z,23.79
2019-04-21T15:03:29.978Z,23.78
2019-04-21T15:06:01.263Z,23.76
2019-04-21T15:08:33.387Z,23.66
2019-04-21T15:11:05.313Z,23.67
2019-04-21T15:13:37.631Z,23.73
2019-04-21T15:16:09.094Z,23.71
2019-04-21T15:18:40.995Z,23.76
2019-04-21T15:21:13.232Z,23.76
2019-04-21T15:23:46.591Z,23.76
2019-04-21T15:26:18.079Z,23.78
2019-04-21T15:28:49.160Z,23.84
2019-04-21T15:31:29.844Z,23.80
2019-04-21T15:33:53.144Z,23.67
2019-04-21T15:36:25.028Z,23.66
2019-04-21T15:38:56.232Z,23.76
2019-04-21T15:41:27.284Z,23.69
2019-04-21T15:44:01.268Z,23.64
2019-04-21T15:50:03.032Z,23.72
2019-04-21T15:52:29.916Z,23.67
2019-04-21T15:55:10.632Z,23.58
2019-04-21T15:58:06.852Z,23.56
2019-04-21T16:00:49.856Z,23.55
2019-04-21T16:03:22.583Z,23.48
2019-04-21T16:05:53.899Z,23.44
2019-04-21T16:08:24.987Z,23.42
2019-04-21T16:11:00.139Z,23.44
2019-04-21T16:13:29.892Z,23.44
2019-04-21T16:16:02.121Z,23.51
2019-04-21T16:18:34.262Z,23.48
2019-04-21T16:21:06.125Z,23.50
2019-04-21T16:23:38.330Z,23.46
2019-04-21T16:26:10.867Z,23.50
2019-04-21T16:28:42.007Z,23.52
2019-04-21T16:31:14.239Z,23.63
2019-04-21T16:33:45.573Z,23.50
2019-04-21T16:36:18.318Z,23.49
2019-04-21T16:38:49.775Z,23.42
2019-04-21T16:41:22.317Z,23.39
2019-04-21T16:43:53.476Z,23.34
2019-04-21T16:46:25.332Z,23.40
2019-04-21T16:48:57.791Z,23.44
2019-04-21T16:51:29.619Z,23.48
2019-04-21T16:54:10.301Z,23.49
2019-04-21T16:56:55.023Z,23.38
2019-04-21T16:59:32.561Z,23.35
2019-04-21T17:02:04.922Z,23.35
2019-04-21T17:04:36.306Z,23.35
2019-04-21T17:07:09.123Z,23.37
2019-04-21T17:09:40.928Z,23.41
2019-04-21T17:12:14.657Z,23.27
2019-04-21T17:15:03.060Z,23.35
2019-04-21T17:17:44.642Z,23.32
2019-04-21T17:19:54.232Z,23.32
2019-04-21T17:22:25.770Z,23.23
2019-04-21T17:24:58.260Z,23.17
2019-04-21T17:27:29.477Z,23.13
2019-04-21T17:30:01.184Z,23.14
2019-04-21T17:32:37.221Z,23.20
2019-04-21T17:35:05.999Z,23.09
2019-04-21T17:37:38.334Z,22.98
2019-04-21T17:40:11.538Z,22.91
2019-04-21T17:42:49.274Z,22.94
2019-04-21T17:45:17.186Z,22.86
2019-04-21T17:47:54.477Z,22.91
2019-04-21T17:50:56.780Z,22.77
2019-04-21T17:53:43.267Z,22.71
2019-04-21T17:56:32.905Z,22.67
2019-04-21T17:59:04.428Z,22.60
2019-04-21T18:01:39.312Z,22.54
2019-04-21T18:04:12.624Z,22.47
2019-04-21T18:07:10.339Z,22.41
2019-04-21T18:09:56.565Z,22.33
2019-04-21T18:12:22.608Z,22.18
2019-04-21T18:14:51.799Z,22.01
2019-04-21T18:17:11.643Z,21.86
2019-04-21T18:19:45.783Z,21.74
2019-04-21T18:22:40.935Z,21.58
2019-04-21T18:25:24.217Z,21.44
2019-04-21T18:27:43.177Z,21.32
2019-04-21T18:33:14.161Z,21.24
2019-04-21T18:35:58.598Z,21.09
2019-04-21T18:39:00.073Z,21.03
2019-04-21T18:41:15.395Z,20.86
2019-04-21T18:44:15.551Z,20.79
2019-04-21T18:46:55.771Z,20.75
2019-04-21T18:49:06.794Z,20.74
2019-04-21T18:52:08.091Z,20.70
2019-04-21T18:54:45.813Z,20.66
2019-04-21T18:57:13.640Z,20.62
2019-04-21T18:59:41.408Z,20.56
2019-04-21T19:02:11.151Z,20.52
2019-04-21T19:04:43.134Z,20.47
2019-04-21T19:07:26.986Z,20.47
2019-04-21T19:13:07.999Z,20.32
2019-04-21T19:15:13.685Z,20.24
2019-04-21T19:18:14.937Z,20.17
2019-04-21T19:22:52.221Z,20.03
2019-04-21T19:25:25.415Z,19.97
2019-04-21T19:27:59.020Z,19.94
2019-04-21T19:30:39.900Z,19.85
2019-04-21T19:33:10.217Z,19.79
2019-04-21T19:35:25.707Z,19.73
2019-04-21T19:38:01.177Z,19.66
2019-04-21T19:40:47.395Z,19.57
2019-04-21T19:43:17.040Z,19.48
2019-04-21T19:45:48.662Z,19.38
2019-04-21T19:48:24.139Z,19.29
2019-04-21T19:51:04.309Z,19.23
2019-04-21T19:53:34.622Z,19.18
2019-04-21T19:55:47.892Z,19.18
2019-04-21T19:58:26.413Z,19.15
2019-04-21T20:00:55.541Z,19.16
2019-04-21T20:03:26.336Z,19.04
2019-04-21T20:06:04.021Z,19.00
2019-04-21T20:08:44.612Z,18.82
2019-04-21T20:11:20.244Z,18.86
2019-04-21T20:14:13.863Z,18.80
2019-04-21T20:16:31.940Z,18.78
2019-04-21T20:18:49.534Z,18.66
2019-04-21T20:21:16.469Z,18.58
2019-04-21T20:23:47.851Z,18.52
2019-04-21T20:26:24.680Z,18.47
2019-04-21T20:29:01.092Z,18.35
2019-04-21T20:31:42.719Z,18.35
2019-04-21T20:34:21.208Z,18.40
2019-04-21T20:37:00.364Z,18.41
2019-04-21T20:39:13.203Z,18.36
2019-04-21T20:41:52.405Z,18.33
2019-04-21T20:44:29.631Z,18.33
2019-04-21T20:46:59.897Z,18.29
2019-04-21T20:49:30.443Z,18.17
2019-04-21T20:52:10.814Z,18.10
2019-04-21T20:54:40.799Z,18.09
2019-04-21T20:57:18.974Z,18.04
2019-04-21T20:59:44.039Z,17.97
2019-04-21T21:02:20.381Z,17.90
2019-04-21T21:04:45.607Z,17.78
2019-04-21T21:07:40.020Z,17.76
2019-04-21T21:10:08.790Z,17.71
2019-04-21T21:15:00.094Z,17.74
2019-04-21T21:17:50.270Z,17.58
2019-04-21T21:20:12.697Z,17.55
2019-04-21T21:22:44.038Z,17.50
2019-04-21T21:25:30.483Z,17.47
2019-04-21T21:27:47.152Z,17.39
2019-04-21T21:30:23.135Z,17.44
2019-04-21T21:33:00.857Z,17.51
2019-04-21T21:35:34.634Z,17.53
2019-04-21T21:38:08.192Z,17.56
2019-04-21T21:40:54.656Z,17.47
2019-04-21T21:43:17.562Z,17.48
2019-04-21T21:45:51.896Z,17.43
2019-04-21T21:48:31.838Z,17.36
2019-04-21T21:51:02.909Z,17.35
2019-04-21T21:53:28.632Z,17.42
2019-04-21T21:55:58.556Z,17.40
2019-04-21T21:58:33.870Z,17.35
2019-04-21T22:01:06.430Z,17.36
2019-04-21T22:03:39.827Z,17.34
2019-04-21T22:06:13.649Z,17.34
2019-04-21T22:08:42.632Z,17.31
2019-04-21T22:11:13.744Z,17.34
2019-04-21T22:13:53.210Z,17.33
2019-04-21T22:16:19.975Z,17.35
2019-04-21T22:19:07.920Z,17.33
2019-04-21T22:21:44.213Z,17.37
2019-04-21T22:24:04.786Z,17.36
2019-04-21T22:26:29.351Z,17.33
2019-04-21T22:29:01.514Z,17.35
2019-04-21T22:31:37.136Z,17.29
2019-04-21T22:34:09.416Z,17.27
2019-04-21T22:36:48.794Z,17.27
2019-04-21T22:39:28.462Z,17.20
2019-04-21T22:41:47.556Z,17.13
2019-04-21T22:44:18.969Z,16.98
2019-04-21T22:46:58.140Z,16.97
2019-04-21T22:49:23.776Z,16.88
2019-04-21T22:51:55.677Z,16.84
2019-04-21T22:54:34.173Z,16.75
2019-04-21T22:57:07.292Z,16.72
2019-04-21T22:59:34.165Z,16.73
2019-04-21T23:02:15.372Z,16.67
2019-04-21T23:04:45.249Z,16.65
2019-04-21T23:07:15.871Z,16.56
2019-04-21T23:09:45.514Z,16.53
2019-04-21T23:12:20.459Z,16.48
2019-04-21T23:14:58.480Z,16.44
2019-04-21T23:17:48.260Z,16.43
2019-04-21T23:20:17.898Z,16.33
2019-04-21T23:22:58.560Z,16.28
2019-04-21T23:25:25.123Z,16.24
2019-04-21T23:27:57.386Z,16.12
2019-04-21T23:30:32.341Z,16.07
2019-04-21T23:32:52.680Z,15.96
2019-04-21T23:35:25.444Z,15.90
2019-04-21T23:37:58.016Z,15.91
2019-04-21T23:40:26.981Z,15.78
2019-04-21T23:43:00.162Z,15.75
2019-04-21T23:45:34.043Z,15.72
2019-04-21T23:48:19.672Z,15.64
2019-04-21T23:50:45.930Z,15.62
2019-04-21T23:53:07.944Z,15.46
2019-04-21T23:55:39.106Z,15.38
2019-04-21T23:58:16.382Z,15.21
